sensor_id;sensor_type;location;lat;lon;timestamp;P1;durP1;ratioP1;P2;durP2;ratioP2
71959;SDS011;59832;51.146;14.024;2023-05-02T00:01:45;6.43;;;5.47;;
71959;SDS011;59832;51.146;14.024;2023-05-02T00:04:12;6.00;;;5.40;;
71959;SDS011;59832;51.146;14.024;2023-05-02T00:06:39;6.82;;;5.82;;
71959;SDS011;59832;51.146;14.024;2023-05-02T00:09:07;5.40;;;4.85;;
71959;SDS011;59832;51.146;14.024;2023-05-02T00:11:34;6.63;;;5.67;;
71959;SDS011;59832;51.146;14.024;2023-05-02T00:14:00;6.30;;;5.28;;
71959;SDS011;59832;51.146;14.024;2023-05-02T00:16:27;7.00;;;5.40;;
71959;SDS011;59832;51.146;14.024;2023-05-02T00:18:53;5.68;;;5.18;;
71959;SDS011;59832;51.146;14.024;2023-05-02T00:21:20;7.57;;;5.78;;
71959;SDS011;59832;51.146;14.024;2023-05-02T00:23:46;6.95;;;5.68;;
71959;SDS011;59832;51.146;14.024;2023-05-02T00:26:12;8.32;;;5.53;;
71959;SDS011;59832;51.146;14.024;2023-05-02T00:28:39;8.23;;;5.70;;
71959;SDS011;59832;51.146;14.024;2023-05-02T00:31:05;10.15;;;5.28;;
71959;SDS011;59832;51.146;14.024;2023-05-02T00:33:32;7.07;;;5.57;;
71959;SDS011;59832;51.146;14.024;2023-05-02T00:35:58;7.30;;;6.07;;
71959;SDS011;59832;51.146;14.024;2023-05-02T00:38:24;6.63;;;5.47;;
71959;SDS011;59832;51.146;14.024;2023-05-02T00:40:51;6.25;;;5.65;;
71959;SDS011;59832;51.146;14.024;2023-05-02T00:43:18;6.70;;;5.97;;
71959;SDS011;59832;51.146;14.024;2023-05-02T00:45:45;9.60;;;5.82;;
71959;SDS011;59832;51.146;14.024;2023-05-02T00:48:12;7.40;;;6.32;;
71959;SDS011;59832;51.146;14.024;2023-05-02T00:50:39;6.70;;;5.93;;
71959;SDS011;59832;51.146;14.024;2023-05-02T00:53:08;8.27;;;6.40;;
71959;SDS011;59832;51.146;14.024;2023-05-02T00:55:35;12.40;;;6.85;;
71959;SDS011;59832;51.146;14.024;2023-05-02T00:58:12;9.68;;;6.38;;
71959;SDS011;59832;51.146;14.024;2023-05-02T01:06:49;7.03;;;5.97;;
71959;SDS011;59832;51.146;14.024;2023-05-02T01:09:41;7.30;;;5.82;;
71959;SDS011;59832;51.146;14.024;2023-05-02T01:12:48;11.05;;;6.63;;
71959;SDS011;59832;51.146;14.024;2023-05-02T01:15:25;8.80;;;6.38;;
71959;SDS011;59832;51.146;14.024;2023-05-02T01:17:52;8.95;;;6.32;;
71959;SDS011;59832;51.146;14.024;2023-05-02T01:20:22;8.27;;;6.25;;
71959;SDS011;59832;51.146;14.024;2023-05-02T01:22:52;8.63;;;6.65;;
71959;SDS011;59832;51.146;14.024;2023-05-02T01:30:42;7.90;;;6.28;;
71959;SDS011;59832;51.146;14.024;2023-05-02T01:33:12;7.38;;;6.53;;
71959;SDS011;59832;51.146;14.024;2023-05-02T01:35:41;7.93;;;6.82;;
71959;SDS011;59832;51.146;14.024;2023-05-02T01:38:12;7.78;;;6.57;;
71959;SDS011;59832;51.146;14.024;2023-05-02T01:40:40;9.02;;;6.50;;
71959;SDS011;59832;51.146;14.024;2023-05-02T01:43:13;7.72;;;6.40;;
71959;SDS011;59832;51.146;14.024;2023-05-02T01:45:42;7.45;;;6.60;;
71959;SDS011;59832;51.146;14.024;2023-05-02T01:48:10;7.75;;;6.65;;
71959;SDS011;59832;51.146;14.024;2023-05-02T01:50:39;8.65;;;7.13;;
71959;SDS011;59832;51.146;14.024;2023-05-02T01:53:08;8.50;;;7.05;;
71959;SDS011;59832;51.146;14.024;2023-05-02T01:55:39;7.47;;;6.78;;
71959;SDS011;59832;51.146;14.024;2023-05-02T01:58:08;7.80;;;6.85;;
71959;SDS011;59832;51.146;14.024;2023-05-02T02:00:36;9.55;;;6.78;;
71959;SDS011;59832;51.146;14.024;2023-05-02T02:03:04;11.00;;;6.93;;
71959;SDS011;59832;51.146;14.024;2023-05-02T02:05:32;7.13;;;6.15;;
71959;SDS011;59832;51.146;14.024;2023-05-02T02:08:00;9.02;;;7.20;;
71959;SDS011;59832;51.146;14.024;2023-05-02T02:10:27;9.38;;;7.13;;
71959;SDS011;59832;51.146;14.024;2023-05-02T02:13:03;8.05;;;6.95;;
71959;SDS011;59832;51.146;14.024;2023-05-02T02:15:33;7.93;;;7.00;;
71959;SDS011;59832;51.146;14.024;2023-05-02T02:18:04;8.82;;;7.43;;
71959;SDS011;59832;51.146;14.024;2023-05-02T02:20:37;8.13;;;7.28;;
71959;SDS011;59832;51.146;14.024;2023-05-02T02:23:08;7.65;;;6.93;;
71959;SDS011;59832;51.146;14.024;2023-05-02T02:25:36;11.05;;;7.10;;
71959;SDS011;59832;51.146;14.024;2023-05-02T02:28:03;10.85;;;7.55;;
71959;SDS011;59832;51.146;14.024;2023-05-02T02:30:29;11.90;;;7.20;;
71959;SDS011;59832;51.146;14.024;2023-05-02T02:32:56;7.78;;;6.90;;
71959;SDS011;59832;51.146;14.024;2023-05-02T02:35:22;7.93;;;7.03;;
71959;SDS011;59832;51.146;14.024;2023-05-02T02:40:55;8.73;;;6.50;;
71959;SDS011;59832;51.146;14.024;2023-05-02T02:43:35;7.03;;;6.35;;
71959;SDS011;59832;51.146;14.024;2023-05-02T02:46:28;11.55;;;7.40;;
71959;SDS011;59832;51.146;14.024;2023-05-02T02:52:09;8.88;;;6.88;;
71959;SDS011;59832;51.146;14.024;2023-05-02T02:54:45;9.57;;;7.47;;
71959;SDS011;59832;51.146;14.024;2023-05-02T02:57:16;9.52;;;6.63;;
71959;SDS011;59832;51.146;14.024;2023-05-02T02:59:58;9.30;;;7.35;;
71959;SDS011;59832;51.146;14.024;2023-05-02T03:02:31;8.50;;;6.95;;
71959;SDS011;59832;51.146;14.024;2023-05-02T03:07:26;10.20;;;6.55;;
71959;SDS011;59832;51.146;14.024;2023-05-02T03:09:53;8.43;;;6.90;;
71959;SDS011;59832;51.146;14.024;2023-05-02T03:12:20;7.70;;;6.90;;
71959;SDS011;59832;51.146;14.024;2023-05-02T03:14:46;7.15;;;6.45;;
71959;SDS011;59832;51.146;14.024;2023-05-02T03:17:13;9.50;;;7.43;;
71959;SDS011;59832;51.146;14.024;2023-05-02T03:19:39;7.30;;;6.60;;
71959;SDS011;59832;51.146;14.024;2023-05-02T03:22:06;7.50;;;6.70;;
71959;SDS011;59832;51.146;14.024;2023-05-02T03:24:32;7.63;;;6.88;;
71959;SDS011;59832;51.146;14.024;2023-05-02T03:26:58;10.48;;;7.18;;
71959;SDS011;59832;51.146;14.024;2023-05-02T03:29:25;8.45;;;7.55;;
71959;SDS011;59832;51.146;14.024;2023-05-02T03:31:51;11.13;;;7.30;;
71959;SDS011;59832;51.146;14.024;2023-05-02T03:34:18;7.53;;;6.68;;
71959;SDS011;59832;51.146;14.024;2023-05-02T03:36:46;7.07;;;6.38;;
71959;SDS011;59832;51.146;14.024;2023-05-02T03:39:13;7.82;;;6.65;;
71959;SDS011;59832;51.146;14.024;2023-05-02T03:41:40;7.70;;;6.90;;
71959;SDS011;59832;51.146;14.024;2023-05-02T03:44:07;9.15;;;6.75;;
71959;SDS011;59832;51.146;14.024;2023-05-02T03:46:33;6.97;;;6.30;;
71959;SDS011;59832;51.146;14.024;2023-05-02T03:49:00;7.70;;;6.63;;
71959;SDS011;59832;51.146;14.024;2023-05-02T03:51:26;8.95;;;6.93;;
71959;SDS011;59832;51.146;14.024;2023-05-02T03:53:53;7.55;;;6.32;;
71959;SDS011;59832;51.146;14.024;2023-05-02T03:56:19;7.32;;;6.55;;
71959;SDS011;59832;51.146;14.024;2023-05-02T03:58:47;7.40;;;6.60;;
71959;SDS011;59832;51.146;14.024;2023-05-02T04:06:08;7.47;;;6.50;;
71959;SDS011;59832;51.146;14.024;2023-05-02T04:08:34;10.57;;;6.80;;
71959;SDS011;59832;51.146;14.024;2023-05-02T04:11:01;9.30;;;5.68;;
71959;SDS011;59832;51.146;14.024;2023-05-02T04:13:28;7.18;;;5.72;;
71959;SDS011;59832;51.146;14.024;2023-05-02T04:15:55;7.80;;;6.30;;
71959;SDS011;59832;51.146;14.024;2023-05-02T04:18:21;9.88;;;7.82;;
71959;SDS011;59832;51.146;14.024;2023-05-02T04:20:48;13.07;;;9.07;;
71959;SDS011;59832;51.146;14.024;2023-05-02T04:28:22;9.20;;;6.43;;
71959;SDS011;59832;51.146;14.024;2023-05-02T04:30:49;9.13;;;6.68;;
71959;SDS011;59832;51.146;14.024;2023-05-02T04:33:16;10.63;;;6.43;;
71959;SDS011;59832;51.146;14.024;2023-05-02T04:35:43;12.70;;;8.43;;
71959;SDS011;59832;51.146;14.024;2023-05-02T04:38:10;14.07;;;9.23;;
71959;SDS011;59832;51.146;14.024;2023-05-02T04:40:36;12.38;;;8.55;;
71959;SDS011;59832;51.146;14.024;2023-05-02T04:43:02;21.63;;;12.40;;
71959;SDS011;59832;51.146;14.024;2023-05-02T04:45:29;12.50;;;8.75;;
71959;SDS011;59832;51.146;14.024;2023-05-02T04:47:55;9.45;;;8.25;;
71959;SDS011;59832;51.146;14.024;2023-05-02T04:50:22;9.32;;;6.65;;
71959;SDS011;59832;51.146;14.024;2023-05-02T04:52:48;7.28;;;6.00;;
71959;SDS011;59832;51.146;14.024;2023-05-02T04:55:15;6.60;;;6.00;;
71959;SDS011;59832;51.146;14.024;2023-05-02T04:57:41;7.10;;;5.95;;
71959;SDS011;59832;51.146;14.024;2023-05-02T05:00:08;6.57;;;5.88;;
71959;SDS011;59832;51.146;14.024;2023-05-02T05:02:34;7.97;;;5.85;;
71959;SDS011;59832;51.146;14.024;2023-05-02T05:05:01;6.53;;;5.67;;
71959;SDS011;59832;51.146;14.024;2023-05-02T05:07:28;7.82;;;6.25;;
71959;SDS011;59832;51.146;14.024;2023-05-02T05:09:54;8.55;;;6.68;;
71959;SDS011;59832;51.146;14.024;2023-05-02T05:12:21;10.60;;;7.10;;
71959;SDS011;59832;51.146;14.024;2023-05-02T05:14:47;10.15;;;7.43;;
71959;SDS011;59832;51.146;14.024;2023-05-02T05:19:41;9.38;;;7.28;;
71959;SDS011;59832;51.146;14.024;2023-05-02T05:22:07;12.45;;;7.25;;
71959;SDS011;59832;51.146;14.024;2023-05-02T05:24:34;7.53;;;6.80;;
71959;SDS011;59832;51.146;14.024;2023-05-02T05:27:01;7.60;;;6.50;;
71959;SDS011;59832;51.146;14.024;2023-05-02T05:29:29;9.03;;;6.80;;
71959;SDS011;59832;51.146;14.024;2023-05-02T05:31:56;10.88;;;7.28;;
71959;SDS011;59832;51.146;14.024;2023-05-02T05:34:23;8.38;;;6.88;;
71959;SDS011;59832;51.146;14.024;2023-05-02T05:36:50;7.88;;;6.88;;
71959;SDS011;59832;51.146;14.024;2023-05-02T05:39:17;7.72;;;6.03;;
71959;SDS011;59832;51.146;14.024;2023-05-02T05:41:43;7.38;;;6.60;;
71959;SDS011;59832;51.146;14.024;2023-05-02T05:44:09;10.05;;;6.75;;
71959;SDS011;59832;51.146;14.024;2023-05-02T05:46:36;6.15;;;5.55;;
71959;SDS011;59832;51.146;14.024;2023-05-02T05:49:03;6.63;;;5.80;;
71959;SDS011;59832;51.146;14.024;2023-05-02T05:51:29;7.75;;;5.70;;
71959;SDS011;59832;51.146;14.024;2023-05-02T05:53:56;5.63;;;5.00;;
71959;SDS011;59832;51.146;14.024;2023-05-02T05:56:23;5.90;;;5.30;;
71959;SDS011;59832;51.146;14.024;2023-05-02T05:58:49;6.22;;;5.60;;
71959;SDS011;59832;51.146;14.024;2023-05-02T06:01:16;6.00;;;5.40;;
71959;SDS011;59832;51.146;14.024;2023-05-02T06:03:42;6.68;;;5.50;;
71959;SDS011;59832;51.146;14.024;2023-05-02T06:06:09;7.10;;;5.70;;
71959;SDS011;59832;51.146;14.024;2023-05-02T06:08:35;7.15;;;4.97;;
71959;SDS011;59832;51.146;14.024;2023-05-02T06:11:02;6.18;;;5.47;;
71959;SDS011;59832;51.146;14.024;2023-05-02T06:13:28;4.73;;;4.30;;
71959;SDS011;59832;51.146;14.024;2023-05-02T06:15:59;6.40;;;5.03;;
71959;SDS011;59832;51.146;14.024;2023-05-02T06:18:26;5.30;;;4.80;;
71959;SDS011;59832;51.146;14.024;2023-05-02T06:20:52;9.23;;;5.20;;
71959;SDS011;59832;51.146;14.024;2023-05-02T06:23:19;5.43;;;4.93;;
71959;SDS011;59832;51.146;14.024;2023-05-02T06:25:45;6.90;;;4.93;;
71959;SDS011;59832;51.146;14.024;2023-05-02T06:28:11;5.97;;;5.10;;
71959;SDS011;59832;51.146;14.024;2023-05-02T06:30:38;5.97;;;4.53;;
71959;SDS011;59832;51.146;14.024;2023-05-02T06:33:04;5.75;;;4.43;;
71959;SDS011;59832;51.146;14.024;2023-05-02T06:35:31;7.57;;;5.20;;
71959;SDS011;59832;51.146;14.024;2023-05-02T06:37:57;5.83;;;4.77;;
71959;SDS011;59832;51.146;14.024;2023-05-02T06:40:24;5.65;;;5.03;;
71959;SDS011;59832;51.146;14.024;2023-05-02T06:42:50;6.88;;;5.00;;
71959;SDS011;59832;51.146;14.024;2023-05-02T06:45:17;5.82;;;5.03;;
71959;SDS011;59832;51.146;14.024;2023-05-02T06:47:43;6.07;;;4.80;;
71959;SDS011;59832;51.146;14.024;2023-05-02T06:50:10;5.90;;;5.30;;
71959;SDS011;59832;51.146;14.024;2023-05-02T06:52:36;5.50;;;4.63;;
71959;SDS011;59832;51.146;14.024;2023-05-02T06:55:03;7.68;;;4.68;;
71959;SDS011;59832;51.146;14.024;2023-05-02T06:59:56;7.05;;;4.57;;
71959;SDS011;59832;51.146;14.024;2023-05-02T07:02:24;4.45;;;3.90;;
71959;SDS011;59832;51.146;14.024;2023-05-02T07:04:50;8.80;;;4.32;;
71959;SDS011;59832;51.146;14.024;2023-05-02T07:07:17;4.38;;;4.00;;
71959;SDS011;59832;51.146;14.024;2023-05-02T07:09:45;4.97;;;3.70;;
71959;SDS011;59832;51.146;14.024;2023-05-02T07:12:12;8.18;;;4.55;;
71959;SDS011;59832;51.146;14.024;2023-05-02T07:14:38;5.82;;;3.75;;
71959;SDS011;59832;51.146;14.024;2023-05-02T07:17:04;4.63;;;3.83;;
71959;SDS011;59832;51.146;14.024;2023-05-02T07:19:31;8.15;;;4.38;;
71959;SDS011;59832;51.146;14.024;2023-05-02T07:21:58;5.10;;;3.80;;
71959;SDS011;59832;51.146;14.024;2023-05-02T07:24:24;3.97;;;3.67;;
71959;SDS011;59832;51.146;14.024;2023-05-02T07:26:51;5.60;;;4.00;;
71959;SDS011;59832;51.146;14.024;2023-05-02T07:29:17;7.50;;;4.13;;
71959;SDS011;59832;51.146;14.024;2023-05-02T07:31:44;5.13;;;4.00;;
71959;SDS011;59832;51.146;14.024;2023-05-02T07:34:10;4.20;;;3.80;;
71959;SDS011;59832;51.146;14.024;2023-05-02T07:36:37;5.00;;;3.88;;
71959;SDS011;59832;51.146;14.024;2023-05-02T07:39:04;4.07;;;3.58;;
71959;SDS011;59832;51.146;14.024;2023-05-02T07:41:30;4.75;;;3.63;;
71959;SDS011;59832;51.146;14.024;2023-05-02T07:43:56;4.32;;;3.30;;
71959;SDS011;59832;51.146;14.024;2023-05-02T07:46:23;5.93;;;3.53;;
71959;SDS011;59832;51.146;14.024;2023-05-02T07:48:49;3.63;;;3.20;;
71959;SDS011;59832;51.146;14.024;2023-05-02T07:51:16;4.37;;;3.40;;
71959;SDS011;59832;51.146;14.024;2023-05-02T07:53:45;3.75;;;3.38;;
71959;SDS011;59832;51.146;14.024;2023-05-02T07:56:11;4.30;;;3.55;;
71959;SDS011;59832;51.146;14.024;2023-05-02T07:58:38;4.75;;;3.47;;
71959;SDS011;59832;51.146;14.024;2023-05-02T08:01:04;5.10;;;3.53;;
71959;SDS011;59832;51.146;14.024;2023-05-02T08:03:31;3.53;;;3.22;;
71959;SDS011;59832;51.146;14.024;2023-05-02T08:05:58;4.18;;;3.25;;
71959;SDS011;59832;51.146;14.024;2023-05-02T08:08:24;5.20;;;3.63;;
71959;SDS011;59832;51.146;14.024;2023-05-02T08:10:50;4.15;;;3.78;;
71959;SDS011;59832;51.146;14.024;2023-05-02T08:13:17;4.00;;;3.60;;
71959;SDS011;59832;51.146;14.024;2023-05-02T08:15:43;5.60;;;3.97;;
71959;SDS011;59832;51.146;14.024;2023-05-02T08:18:11;4.30;;;3.85;;
71959;SDS011;59832;51.146;14.024;2023-05-02T08:20:37;4.60;;;4.10;;
71959;SDS011;59832;51.146;14.024;2023-05-02T08:23:04;5.80;;;3.80;;
71959;SDS011;59832;51.146;14.024;2023-05-02T08:25:30;4.28;;;3.42;;
71959;SDS011;59832;51.146;14.024;2023-05-02T08:27:57;5.22;;;3.92;;
71959;SDS011;59832;51.146;14.024;2023-05-02T08:30:23;4.28;;;3.97;;
71959;SDS011;59832;51.146;14.024;2023-05-02T08:32:50;4.50;;;4.10;;
71959;SDS011;59832;51.146;14.024;2023-05-02T08:35:16;4.85;;;4.45;;
71959;SDS011;59832;51.146;14.024;2023-05-02T08:37:43;4.43;;;4.03;;
71959;SDS011;59832;51.146;14.024;2023-05-02T08:40:10;5.15;;;4.72;;
71959;SDS011;59832;51.146;14.024;2023-05-02T08:42:37;6.80;;;4.28;;
71959;SDS011;59832;51.146;14.024;2023-05-02T08:45:07;5.15;;;4.65;;
71959;SDS011;59832;51.146;14.024;2023-05-02T08:47:34;8.52;;;4.63;;
71959;SDS011;59832;51.146;14.024;2023-05-02T08:50:02;4.57;;;4.10;;
71959;SDS011;59832;51.146;14.024;2023-05-02T08:54:58;5.15;;;3.70;;
71959;SDS011;59832;51.146;14.024;2023-05-02T08:57:28;5.50;;;3.50;;
71959;SDS011;59832;51.146;14.024;2023-05-02T08:59:55;3.97;;;3.55;;
71959;SDS011;59832;51.146;14.024;2023-05-02T09:02:38;4.30;;;3.90;;
71959;SDS011;59832;51.146;14.024;2023-05-02T09:05:15;5.38;;;3.80;;
71959;SDS011;59832;51.146;14.024;2023-05-02T09:07:47;6.43;;;3.90;;
71959;SDS011;59832;51.146;14.024;2023-05-02T09:10:14;5.30;;;3.80;;
71959;SDS011;59832;51.146;14.024;2023-05-02T09:12:40;4.65;;;3.95;;
71959;SDS011;59832;51.146;14.024;2023-05-02T09:15:08;4.40;;;4.00;;
71959;SDS011;59832;51.146;14.024;2023-05-02T09:17:45;5.05;;;4.13;;
71959;SDS011;59832;51.146;14.024;2023-05-02T09:20:13;4.78;;;3.92;;
71959;SDS011;59832;51.146;14.024;2023-05-02T09:22:48;4.43;;;4.00;;
71959;SDS011;59832;51.146;14.024;2023-05-02T09:25:16;5.13;;;3.88;;
71959;SDS011;59832;51.146;14.024;2023-05-02T09:27:49;5.93;;;4.40;;
71959;SDS011;59832;51.146;14.024;2023-05-02T09:30:18;4.00;;;3.70;;
71959;SDS011;59832;51.146;14.024;2023-05-02T09:32:46;4.53;;;4.07;;
71959;SDS011;59832;51.146;14.024;2023-05-02T09:35:16;4.32;;;3.60;;
71959;SDS011;59832;51.146;14.024;2023-05-02T09:37:52;4.82;;;3.67;;
71959;SDS011;59832;51.146;14.024;2023-05-02T09:40:23;4.20;;;3.78;;
71959;SDS011;59832;51.146;14.024;2023-05-02T09:42:51;5.13;;;4.00;;
71959;SDS011;59832;51.146;14.024;2023-05-02T09:45:21;5.63;;;3.90;;
71959;SDS011;59832;51.146;14.024;2023-05-02T09:47:51;10.40;;;4.53;;
71959;SDS011;59832;51.146;14.024;2023-05-02T09:53:04;4.85;;;4.13;;
71959;SDS011;59832;51.146;14.024;2023-05-02T09:55:31;5.18;;;4.50;;
71959;SDS011;59832;51.146;14.024;2023-05-02T09:57:58;8.38;;;4.50;;
71959;SDS011;59832;51.146;14.024;2023-05-02T10:00:38;7.97;;;5.45;;
71959;SDS011;59832;51.146;14.024;2023-05-02T10:03:09;6.82;;;5.65;;
71959;SDS011;59832;51.146;14.024;2023-05-02T10:05:37;6.13;;;5.47;;
71959;SDS011;59832;51.146;14.024;2023-05-02T10:08:04;6.20;;;5.50;;
71959;SDS011;59832;51.146;14.024;2023-05-02T10:10:32;9.00;;;5.80;;
71959;SDS011;59832;51.146;14.024;2023-05-02T10:13:02;8.30;;;6.18;;
71959;SDS011;59832;51.146;14.024;2023-05-02T10:15:30;7.90;;;6.28;;
71959;SDS011;59832;51.146;14.024;2023-05-02T10:17:59;7.95;;;6.45;;
71959;SDS011;59832;51.146;14.024;2023-05-02T10:20:33;6.90;;;6.20;;
71959;SDS011;59832;51.146;14.024;2023-05-02T10:23:02;8.52;;;6.47;;
71959;SDS011;59832;51.146;14.024;2023-05-02T10:25:30;7.32;;;6.60;;
71959;SDS011;59832;51.146;14.024;2023-05-02T10:27:58;8.43;;;6.97;;
71959;SDS011;59832;51.146;14.024;2023-05-02T10:30:25;7.57;;;6.25;;
71959;SDS011;59832;51.146;14.024;2023-05-02T10:32:52;9.13;;;7.15;;
71959;SDS011;59832;51.146;14.024;2023-05-02T10:35:21;9.23;;;7.80;;
71959;SDS011;59832;51.146;14.024;2023-05-02T10:37:49;10.25;;;7.95;;
71959;SDS011;59832;51.146;14.024;2023-05-02T10:40:17;9.00;;;7.22;;
71959;SDS011;59832;51.146;14.024;2023-05-02T10:42:45;8.77;;;7.03;;
71959;SDS011;59832;51.146;14.024;2023-05-02T10:45:32;10.50;;;7.70;;
71959;SDS011;59832;51.146;14.024;2023-05-02T10:48:15;8.65;;;7.10;;
71959;SDS011;59832;51.146;14.024;2023-05-02T10:50:43;8.40;;;6.93;;
71959;SDS011;59832;51.146;14.024;2023-05-02T10:56:32;9.25;;;7.00;;
71959;SDS011;59832;51.146;14.024;2023-05-02T10:58:54;8.77;;;6.85;;
71959;SDS011;59832;51.146;14.024;2023-05-02T11:01:55;8.73;;;7.30;;
71959;SDS011;59832;51.146;14.024;2023-05-02T11:04:23;9.30;;;6.90;;
71959;SDS011;59832;51.146;14.024;2023-05-02T11:11:48;8.60;;;7.28;;
71959;SDS011;59832;51.146;14.024;2023-05-02T11:19:25;7.60;;;6.70;;
71959;SDS011;59832;51.146;14.024;2023-05-02T11:24:49;10.25;;;8.25;;
71959;SDS011;59832;51.146;14.024;2023-05-02T11:29:55;9.50;;;8.40;;
71959;SDS011;59832;51.146;14.024;2023-05-02T11:34:49;9.30;;;8.30;;
71959;SDS011;59832;51.146;14.024;2023-05-02T11:37:18;9.18;;;7.70;;
71959;SDS011;59832;51.146;14.024;2023-05-02T11:39:46;9.15;;;7.20;;
71959;SDS011;59832;51.146;14.024;2023-05-02T11:42:28;7.93;;;7.13;;
71959;SDS011;59832;51.146;14.024;2023-05-02T11:44:56;11.00;;;8.27;;
71959;SDS011;59832;51.146;14.024;2023-05-02T11:47:25;12.38;;;9.00;;
71959;SDS011;59832;51.146;14.024;2023-05-02T11:49:56;10.35;;;8.57;;
71959;SDS011;59832;51.146;14.024;2023-05-02T11:54:52;13.88;;;9.88;;
71959;SDS011;59832;51.146;14.024;2023-05-02T11:57:20;10.38;;;8.88;;
71959;SDS011;59832;51.146;14.024;2023-05-02T11:59:51;12.40;;;9.40;;
71959;SDS011;59832;51.146;14.024;2023-05-02T12:02:19;11.18;;;9.38;;
71959;SDS011;59832;51.146;14.024;2023-05-02T12:04:46;11.13;;;9.13;;
71959;SDS011;59832;51.146;14.024;2023-05-02T12:07:13;10.20;;;8.98;;
71959;SDS011;59832;51.146;14.024;2023-05-02T12:09:49;12.05;;;9.38;;
71959;SDS011;59832;51.146;14.024;2023-05-02T12:12:20;9.27;;;7.97;;
71959;SDS011;59832;51.146;14.024;2023-05-02T12:14:47;10.65;;;7.90;;
71959;SDS011;59832;51.146;14.024;2023-05-02T12:17:14;9.52;;;7.25;;
71959;SDS011;59832;51.146;14.024;2023-05-02T12:19:42;9.50;;;6.80;;
71959;SDS011;59832;51.146;14.024;2023-05-02T12:22:09;8.57;;;7.47;;
71959;SDS011;59832;51.146;14.024;2023-05-02T12:24:36;9.93;;;7.30;;
71959;SDS011;59832;51.146;14.024;2023-05-02T12:29:38;11.45;;;7.70;;
71959;SDS011;59832;51.146;14.024;2023-05-02T12:32:08;9.70;;;7.68;;
71959;SDS011;59832;51.146;14.024;2023-05-02T12:34:39;8.55;;;7.05;;
71959;SDS011;59832;51.146;14.024;2023-05-02T12:37:07;9.25;;;6.95;;
71959;SDS011;59832;51.146;14.024;2023-05-02T12:39:35;7.75;;;6.72;;
71959;SDS011;59832;51.146;14.024;2023-05-02T12:44:40;7.32;;;6.63;;
71959;SDS011;59832;51.146;14.024;2023-05-02T12:47:11;8.13;;;6.72;;
71959;SDS011;59832;51.146;14.024;2023-05-02T12:52:17;9.02;;;7.10;;
71959;SDS011;59832;51.146;14.024;2023-05-02T12:54:44;7.10;;;5.97;;
71959;SDS011;59832;51.146;14.024;2023-05-02T12:59:51;5.75;;;5.15;;
71959;SDS011;59832;51.146;14.024;2023-05-02T13:02:19;6.53;;;5.18;;
71959;SDS011;59832;51.146;14.024;2023-05-02T13:04:46;5.68;;;5.10;;
71959;SDS011;59832;51.146;14.024;2023-05-02T13:07:13;7.10;;;5.57;;
71959;SDS011;59832;51.146;14.024;2023-05-02T13:09:39;6.07;;;5.47;;
71959;SDS011;59832;51.146;14.024;2023-05-02T13:12:06;5.97;;;5.40;;
71959;SDS011;59832;51.146;14.024;2023-05-02T13:14:33;6.10;;;5.60;;
71959;SDS011;59832;51.146;14.024;2023-05-02T13:16:59;8.65;;;5.90;;
71959;SDS011;59832;51.146;14.024;2023-05-02T13:19:26;7.35;;;5.60;;
71959;SDS011;59832;51.146;14.024;2023-05-02T13:21:56;6.28;;;5.68;;
71959;SDS011;59832;51.146;14.024;2023-05-02T13:24:23;6.28;;;5.63;;
71959;SDS011;59832;51.146;14.024;2023-05-02T13:26:49;6.68;;;5.68;;
71959;SDS011;59832;51.146;14.024;2023-05-02T13:29:16;6.80;;;5.50;;
71959;SDS011;59832;51.146;14.024;2023-05-02T13:31:43;7.50;;;5.67;;
71959;SDS011;59832;51.146;14.024;2023-05-02T13:34:09;6.25;;;5.65;;
71959;SDS011;59832;51.146;14.024;2023-05-02T13:36:36;6.28;;;5.70;;
71959;SDS011;59832;51.146;14.024;2023-05-02T13:39:05;6.13;;;5.60;;
71959;SDS011;59832;51.146;14.024;2023-05-02T13:41:32;6.13;;;5.63;;
71959;SDS011;59832;51.146;14.024;2023-05-02T13:43:58;6.80;;;6.10;;
71959;SDS011;59832;51.146;14.024;2023-05-02T13:46:25;6.47;;;5.87;;
71959;SDS011;59832;51.146;14.024;2023-05-02T13:48:51;6.47;;;5.68;;
71959;SDS011;59832;51.146;14.024;2023-05-02T13:51:18;6.82;;;5.85;;
71959;SDS011;59832;51.146;14.024;2023-05-02T13:53:44;6.68;;;5.97;;
71959;SDS011;59832;51.146;14.024;2023-05-02T13:56:11;6.90;;;6.03;;
71959;SDS011;59832;51.146;14.024;2023-05-02T13:58:37;6.80;;;6.10;;
71959;SDS011;59832;51.146;14.024;2023-05-02T14:01:03;7.72;;;6.32;;
71959;SDS011;59832;51.146;14.024;2023-05-02T14:03:30;7.53;;;6.32;;
71959;SDS011;59832;51.146;14.024;2023-05-02T14:05:57;7.47;;;6.37;;
71959;SDS011;59832;51.146;14.024;2023-05-02T14:08:23;7.38;;;6.30;;
71959;SDS011;59832;51.146;14.024;2023-05-02T14:10:50;7.13;;;6.20;;
71959;SDS011;59832;51.146;14.024;2023-05-02T14:13:16;7.95;;;7.03;;
71959;SDS011;59832;51.146;14.024;2023-05-02T14:15:42;8.73;;;7.82;;
71959;SDS011;59832;51.146;14.024;2023-05-02T14:18:09;9.43;;;7.63;;
71959;SDS011;59832;51.146;14.024;2023-05-02T14:20:35;10.53;;;7.63;;
71959;SDS011;59832;51.146;14.024;2023-05-02T14:23:02;11.70;;;8.60;;
71959;SDS011;59832;51.146;14.024;2023-05-02T14:25:31;10.52;;;8.57;;
71959;SDS011;59832;51.146;14.024;2023-05-02T14:27:57;9.60;;;8.13;;
71959;SDS011;59832;51.146;14.024;2023-05-02T14:30:24;9.55;;;8.00;;
71959;SDS011;59832;51.146;14.024;2023-05-02T14:32:50;8.98;;;7.43;;
71959;SDS011;59832;51.146;14.024;2023-05-02T14:35:17;7.13;;;6.40;;
71959;SDS011;59832;51.146;14.024;2023-05-02T14:37:43;7.30;;;6.40;;
71959;SDS011;59832;51.146;14.024;2023-05-02T14:40:10;6.75;;;6.05;;
71959;SDS011;59832;51.146;14.024;2023-05-02T14:42:37;7.97;;;6.80;;
71959;SDS011;59832;51.146;14.024;2023-05-02T14:45:04;7.80;;;6.68;;
71959;SDS011;59832;51.146;14.024;2023-05-02T14:47:31;8.82;;;6.68;;
71959;SDS011;59832;51.146;14.024;2023-05-02T14:49:58;7.80;;;6.63;;
71959;SDS011;59832;51.146;14.024;2023-05-02T14:52:25;7.18;;;6.47;;
71959;SDS011;59832;51.146;14.024;2023-05-02T14:54:52;9.13;;;7.60;;
71959;SDS011;59832;51.146;14.024;2023-05-02T14:57:18;7.40;;;6.55;;
71959;SDS011;59832;51.146;14.024;2023-05-02T14:59:45;7.97;;;6.60;;
71959;SDS011;59832;51.146;14.024;2023-05-02T15:02:11;8.65;;;6.90;;
71959;SDS011;59832;51.146;14.024;2023-05-02T15:04:38;7.40;;;6.70;;
71959;SDS011;59832;51.146;14.024;2023-05-02T15:07:04;7.90;;;7.10;;
71959;SDS011;59832;51.146;14.024;2023-05-02T15:09:31;10.32;;;6.40;;
71959;SDS011;59832;51.146;14.024;2023-05-02T15:11:58;6.90;;;6.13;;
71959;SDS011;59832;51.146;14.024;2023-05-02T15:14:24;8.85;;;7.10;;
71959;SDS011;59832;51.146;14.024;2023-05-02T15:16:51;6.95;;;6.25;;
71959;SDS011;59832;51.146;14.024;2023-05-02T15:19:17;6.90;;;5.03;;
71959;SDS011;59832;51.146;14.024;2023-05-02T15:21:44;4.75;;;4.35;;
71959;SDS011;59832;51.146;14.024;2023-05-02T15:24:10;5.10;;;4.05;;
71959;SDS011;59832;51.146;14.024;2023-05-02T15:26:37;5.03;;;4.23;;
71959;SDS011;59832;51.146;14.024;2023-05-02T15:29:05;4.97;;;4.13;;
71959;SDS011;59832;51.146;14.024;2023-05-02T15:31:32;4.93;;;4.20;;
71959;SDS011;59832;51.146;14.024;2023-05-02T15:33:59;5.25;;;4.45;;
71959;SDS011;59832;51.146;14.024;2023-05-02T15:36:26;6.32;;;4.57;;
71959;SDS011;59832;51.146;14.024;2023-05-02T15:38:57;5.55;;;4.45;;
71959;SDS011;59832;51.146;14.024;2023-05-02T15:41:24;5.30;;;4.80;;
71959;SDS011;59832;51.146;14.024;2023-05-02T15:43:53;5.68;;;5.07;;
71959;SDS011;59832;51.146;14.024;2023-05-02T15:46:20;5.83;;;5.23;;
71959;SDS011;59832;51.146;14.024;2023-05-02T15:48:46;7.63;;;4.80;;
71959;SDS011;59832;51.146;14.024;2023-05-02T15:51:13;5.35;;;4.15;;
71959;SDS011;59832;51.146;14.024;2023-05-02T15:53:40;5.47;;;4.25;;